createdAt,value
2019-01-05T00:02:10.444Z,8.80
2019-01-05T00:04:57.519Z,8.80
2019-01-05T00:07:51.716Z,8.80
2019-01-05T00:10:58.316Z,8.80
2019-01-05T00:13:52.219Z,8.80
2019-01-05T00:16:53.576Z,8.70
2019-01-05T00:19:54.212Z,8.70
2019-01-05T00:22:41.116Z,8.70
2019-01-05T00:25:30.465Z,8.70
2019-01-05T00:28:14.370Z,8.70
2019-01-05T00:31:00.425Z,8.60
2019-01-05T00:34:01.304Z,8.60
2019-01-05T00:36:52.528Z,8.60
2019-01-05T00:39:43.554Z,8.60
2019-01-05T00:42:32.039Z,8.60
2019-01-05T00:45:28.816Z,8.60
2019-01-05T00:48:29.891Z,8.60
2019-01-05T00:51:23.632Z,8.50
2019-01-05T00:54:28.340Z,8.50
2019-01-05T00:57:17.799Z,8.50
2019-01-05T01:00:15.595Z,8.50
2019-01-05T01:03:09.845Z,8.50
2019-01-05T01:05:58.815Z,8.50
2019-01-05T01:08:45.695Z,8.50
2019-01-05T01:11:38.421Z,8.40
2019-01-05T01:14:35.056Z,8.40
2019-01-05T01:17:41.500Z,8.40
2019-01-05T01:20:28.451Z,8.40
2019-01-05T01:23:16.921Z,8.30
2019-01-05T01:26:24.272Z,8.30
2019-01-05T01:29:18.900Z,8.30
2019-01-05T01:32:05.564Z,8.30
2019-01-05T01:34:54.388Z,8.30
2019-01-05T01:38:25.864Z,8.20
2019-01-05T01:41:21.816Z,8.20
2019-01-05T01:44:10.754Z,8.20
2019-01-05T01:47:11.084Z,8.20
2019-01-05T01:50:10.060Z,8.10
2019-01-05T01:53:02.944Z,8.10
2019-01-05T01:55:52.295Z,8.10
2019-01-05T01:58:41.813Z,8.10
2019-01-05T02:01:28.752Z,8.10
2019-01-05T02:04:23.147Z,8.10
2019-01-05T02:07:15.619Z,8.10
2019-01-05T02:10:04.523Z,8.00
2019-01-05T02:13:13.773Z,8.00
2019-01-05T02:15:52.200Z,8.00
2019-01-05T02:19:33.583Z,8.00
2019-01-05T02:23:04.694Z,8.00
2019-01-05T02:26:27.126Z,7.90
2019-01-05T02:29:40.476Z,7.90
2019-01-05T02:33:33.923Z,7.90
2019-01-05T02:37:13.219Z,7.90
2019-01-05T02:40:43.864Z,7.90
2019-01-05T02:44:27.281Z,7.80
2019-01-05T02:48:04.404Z,7.80
2019-01-05T02:51:40.612Z,7.70
2019-01-05T02:54:45.523Z,7.70
2019-01-05T02:58:06.348Z,7.70
2019-01-05T03:01:38.133Z,7.60
2019-01-05T03:04:43.855Z,7.60
2019-01-05T03:08:22.287Z,7.60
2019-01-05T03:11:58.021Z,7.60
2019-01-05T03:15:20.948Z,7.60
2019-01-05T03:19:04.647Z,7.60
2019-01-05T03:22:45.675Z,7.60
2019-01-05T03:26:16.234Z,7.50
2019-01-05T03:29:39.105Z,7.50
2019-01-05T03:33:34.307Z,7.40
2019-01-05T03:37:10.941Z,7.40
2019-01-05T03:40:34.381Z,7.40
2019-01-05T03:44:09.703Z,7.30
2019-01-05T03:47:25.443Z,7.30
2019-01-05T03:51:10.913Z,7.30
2019-01-05T03:54:39.996Z,7.30
2019-01-05T03:58:02.014Z,7.30
2019-01-05T04:01:26.155Z,7.20
2019-01-05T04:05:04.869Z,7.20
2019-01-05T04:08:54.020Z,7.20
2019-01-05T04:12:46.297Z,7.20
2019-01-05T04:16:13.113Z,7.10
2019-01-05T04:19:43.449Z,7.10
2019-01-05T04:23:31.223Z,7.10
2019-01-05T04:27:15.336Z,7.10
2019-01-05T04:30:44.868Z,7.00
2019-01-05T04:34:31.420Z,7.00
2019-01-05T04:37:44.117Z,7.00
2019-01-05T04:41:14.021Z,7.00
2019-01-05T04:44:29.005Z,7.00
2019-01-05T04:48:09.935Z,6.90
2019-01-05T04:51:52.449Z,6.90
2019-01-05T04:55:23.212Z,6.90
2019-01-05T04:58:59.383Z,6.90
2019-01-05T05:02:43.225Z,6.80
2019-01-05T05:06:29.672Z,6.80
2019-01-05T05:10:01.450Z,6.80
2019-01-05T05:13:23.350Z,6.80
2019-01-05T05:16:45.143Z,6.70
2019-01-05T05:20:48.033Z,6.70
2019-01-05T05:24:17.170Z,6.70
2019-01-05T05:27:43.761Z,6.70
2019-01-05T05:31:21.413Z,6.70
2019-01-05T05:34:54.921Z,6.70
2019-01-05T05:38:28.699Z,6.60
2019-01-05T05:41:59.146Z,6.60
2019-01-05T05:45:21.396Z,6.60
2019-01-05T05:49:06.489Z,6.60
2019-01-05T05:52:28.821Z,6.60
2019-01-05T05:55:44.828Z,6.60
2019-01-05T05:59:17.209Z,6.50
2019-01-05T06:02:33.205Z,6.60
2019-01-05T06:05:57.566Z,6.50
2019-01-05T06:09:33.945Z,6.60
2019-01-05T06:13:00.358Z,6.60
2019-01-05T06:16:32.585Z,6.50
2019-01-05T06:19:56.555Z,6.50
2019-01-05T06:23:42.232Z,6.50
2019-01-05T06:27:14.196Z,6.50
2019-01-05T06:30:52.944Z,6.50
2019-01-05T06:34:12.049Z,6.50
2019-01-05T06:37:26.727Z,6.50
2019-01-05T06:41:04.036Z,6.40
2019-01-05T06:44:23.581Z,6.40
2019-01-05T06:48:02.709Z,6.40
2019-01-05T06:51:44.260Z,6.40
2019-01-05T06:55:31.814Z,6.40
2019-01-05T06:59:09.420Z,6.40
2019-01-05T07:02:34.983Z,6.40
2019-01-05T07:06:19.661Z,6.40
2019-01-05T07:09:42.724Z,6.30
2019-01-05T07:13:07.835Z,6.30
2019-01-05T07:16:38.604Z,6.30
2019-01-05T07:20:01.012Z,6.30
2019-01-05T07:23:34.296Z,6.30
2019-01-05T07:27:08.615Z,6.30
2019-01-05T07:30:51.232Z,6.30
2019-01-05T07:34:26.193Z,6.30
2019-01-05T07:37:56.753Z,6.30
2019-01-05T07:41:16.775Z,6.30
2019-01-05T07:44:39.912Z,6.30
2019-01-05T07:48:13.109Z,6.30
2019-01-05T07:51:46.523Z,6.30
2019-01-05T07:55:25.420Z,6.30
2019-01-05T07:58:47.643Z,6.30
2019-01-05T08:02:03.444Z,6.30
2019-01-05T08:05:24.140Z,6.30
2019-01-05T08:09:00.773Z,6.30
2019-01-05T08:12:28.380Z,6.30
2019-01-05T08:16:07.480Z,6.30
2019-01-05T08:20:07.087Z,6.40
2019-01-05T08:23:42.058Z,6.40
2019-01-05T08:27:25.345Z,6.40
2019-01-05T08:30:56.213Z,6.50
2019-01-05T08:34:35.852Z,6.50
2019-01-05T08:38:25.052Z,6.60
2019-01-05T08:41:56.977Z,6.70
2019-01-05T08:45:08.480Z,6.80
2019-01-05T08:48:52.155Z,6.90
2019-01-05T08:52:33.085Z,6.90
2019-01-05T08:56:02.417Z,7.00
2019-01-05T08:59:16.824Z,7.00
2019-01-05T09:03:07.376Z,7.10
2019-01-05T09:06:44.551Z,7.20
2019-01-05T09:09:59.704Z,7.20
2019-01-05T09:13:18.563Z,7.30
2019-01-05T09:16:44.831Z,7.30
2019-01-05T09:20:10.297Z,7.40
2019-01-05T09:23:39.364Z,7.40
2019-01-05T09:27:20.580Z,7.50
2019-01-05T09:30:36.644Z,7.50
2019-01-05T09:34:26.969Z,7.50
2019-01-05T09:37:57.420Z,7.50
2019-01-05T09:41:51.552Z,7.50
2019-01-05T09:45:19.672Z,7.60
2019-01-05T09:49:02.585Z,7.60
2019-01-05T09:52:45.319Z,7.60
2019-01-05T09:56:16.409Z,7.60
2019-01-05T09:59:40.356Z,7.70
2019-01-05T10:03:09.636Z,7.70
2019-01-05T10:06:45.261Z,7.70
2019-01-05T10:10:10.556Z,7.70
2019-01-05T10:13:54.072Z,7.70
2019-01-05T10:17:31.315Z,7.70
2019-01-05T10:20:52.063Z,7.80
2019-01-05T10:24:13.436Z,7.80
2019-01-05T10:27:27.705Z,7.80
2019-01-05T10:31:13.256Z,7.80
2019-01-05T10:34:44.296Z,7.80
2019-01-05T10:38:26.072Z,7.80
2019-01-05T10:42:07.107Z,7.80
2019-01-05T10:45:56.082Z,7.90
2019-01-05T10:49:25.067Z,7.90
2019-01-05T10:53:11.828Z,7.90
2019-01-05T10:56:42.891Z,7.90
2019-01-05T11:00:11.283Z,7.90
2019-01-05T11:03:48.659Z,7.90
2019-01-05T11:07:28.384Z,7.90
2019-01-05T11:11:10.348Z,7.90
2019-01-05T11:14:33.430Z,7.90
2019-01-05T11:18:13.841Z,7.90
2019-01-05T11:21:54.877Z,7.90
2019-01-05T11:25:34.568Z,7.90
2019-01-05T11:29:13.368Z,7.90
2019-01-05T11:33:05.996Z,8.00
2019-01-05T11:36:45.309Z,8.00
2019-01-05T11:40:18.580Z,8.00
2019-01-05T11:43:49.672Z,8.00
2019-01-05T11:46:56.133Z,8.00
2019-01-05T11:50:44.418Z,8.00
2019-01-05T11:54:22.487Z,8.00
2019-01-05T11:57:54.374Z,8.10
2019-01-05T12:01:32.348Z,8.00
2019-01-05T12:04:56.122Z,8.10
2019-01-05T12:08:29.992Z,8.10
2019-01-05T12:11:57.372Z,8.10
2019-01-05T12:15:33.531Z,8.10
2019-01-05T12:18:58.541Z,8.10
2019-01-05T12:22:38.578Z,8.20
2019-01-05T12:26:01.457Z,8.20
2019-01-05T12:29:34.961Z,8.20
2019-01-05T12:32:43.143Z,8.20
2019-01-05T12:36:23.685Z,8.20
2019-01-05T12:40:22.949Z,8.30
2019-01-05T12:43:49.732Z,8.30
2019-01-05T12:47:06.585Z,8.40
2019-01-05T12:50:40.128Z,8.40
2019-01-05T12:54:11.155Z,8.40
2019-01-05T12:57:28.184Z,8.40
2019-01-05T13:01:10.919Z,8.50
2019-01-05T13:04:38.631Z,8.50
2019-01-05T13:08:26.944Z,8.60
2019-01-05T13:12:12.980Z,8.60
2019-01-05T13:16:00.564Z,8.60
2019-01-05T13:19:33.412Z,8.70
2019-01-05T13:23:01.355Z,8.70
2019-01-05T13:26:30.291Z,8.80
2019-01-05T13:30:08.021Z,8.80
2019-01-05T13:33:38.148Z,8.90
2019-01-05T13:37:05.112Z,8.90
2019-01-05T13:40:51.992Z,9.00
2019-01-05T13:44:15.393Z,9.10
2019-01-05T13:47:47.229Z,9.10
2019-01-05T13:51:30.503Z,9.20
2019-01-05T13:54:32.411Z,9.30
2019-01-05T13:57:34.725Z,9.30
2019-01-05T14:00:32.492Z,9.40
2019-01-05T14:03:19.240Z,9.40
2019-01-05T14:06:06.632Z,9.50
2019-01-05T14:09:14.226Z,9.50
2019-01-05T14:12:01.067Z,9.50
2019-01-05T14:14:47.972Z,9.60
2019-01-05T14:17:35.216Z,9.60
2019-01-05T14:20:39.062Z,9.60
2019-01-05T14:23:36.451Z,9.60
2019-01-05T14:26:35.220Z,9.60
2019-01-05T14:29:22.299Z,9.60
2019-01-05T14:32:10.685Z,9.70
2019-01-05T14:35:13.980Z,9.70
2019-01-05T14:38:01.121Z,9.70
2019-01-05T14:40:54.153Z,9.70
2019-01-05T14:43:48.565Z,9.60
2019-01-05T14:46:36.412Z,9.70
2019-01-05T14:49:26.251Z,9.70
2019-01-05T14:52:13.444Z,9.70
2019-01-05T14:55:07.688Z,9.70
2019-01-05T14:57:54.609Z,9.70
2019-01-05T15:00:41.696Z,9.60
2019-01-05T15:03:42.037Z,9.60
2019-01-05T15:06:30.404Z,9.60
2019-01-05T15:09:18.736Z,9.60
2019-01-05T15:12:19.136Z,9.60
2019-01-05T15:15:18.940Z,9.60
2019-01-05T15:18:15.882Z,9.60
2019-01-05T15:21:00.549Z,9.60
2019-01-05T15:23:49.650Z,9.50
2019-01-05T15:26:36.973Z,9.50
2019-01-05T15:29:24.152Z,9.50
2019-01-05T15:32:27.405Z,9.50
2019-01-05T15:35:14.326Z,9.50
2019-01-05T15:38:17.862Z,9.40
2019-01-05T15:41:16.821Z,9.40
2019-01-05T15:44:23.211Z,9.40
2019-01-05T15:47:10.263Z,9.40
2019-01-05T15:50:10.596Z,9.30
2019-01-05T15:53:01.712Z,9.30
2019-01-05T15:55:50.132Z,9.30
2019-01-05T15:58:41.544Z,9.20
2019-01-05T16:01:29.797Z,9.20
2019-01-05T16:04:27.574Z,9.20
2019-01-05T16:07:15.581Z,9.20
2019-01-05T16:10:16.207Z,9.10
2019-01-05T16:13:04.866Z,9.10
2019-01-05T16:16:08.224Z,9.10
2019-01-05T16:19:15.687Z,9.00
2019-01-05T16:22:09.796Z,9.00
2019-01-05T16:24:58.156Z,9.00
2019-01-05T16:27:48.342Z,8.90
2019-01-05T16:30:35.528Z,8.90
2019-01-05T16:33:32.699Z,8.90
2019-01-05T16:36:23.932Z,8.90
2019-01-05T16:39:19.302Z,8.80
2019-01-05T16:42:05.542Z,8.80
2019-01-05T16:44:53.572Z,8.70
2019-01-05T16:47:40.708Z,8.70
2019-01-05T16:50:30.539Z,8.70
2019-01-05T16:53:17.547Z,8.70
2019-01-05T16:56:14.968Z,8.60
2019-01-05T16:59:01.102Z,8.60
2019-01-05T17:02:03.518Z,8.60
2019-01-05T17:04:54.764Z,8.50
2019-01-05T17:07:41.679Z,8.50
2019-01-05T17:10:36.166Z,8.50
2019-01-05T17:13:30.092Z,8.50
2019-01-05T17:16:13.603Z,8.40
2019-01-05T17:19:04.456Z,8.40
2019-01-05T17:21:52.113Z,8.40
2019-01-05T17:24:44.095Z,8.40
2019-01-05T17:27:35.169Z,8.30
2019-01-05T17:30:24.986Z,8.30
2019-01-05T17:33:25.430Z,8.30
2019-01-05T17:36:13.876Z,8.30
2019-01-05T17:39:00.864Z,8.20
2019-01-05T17:41:48.133Z,8.20
2019-01-05T17:44:36.451Z,8.20
2019-01-05T17:47:27.426Z,8.10
2019-01-05T17:50:19.478Z,8.10
2019-01-05T17:53:23.031Z,8.10
2019-01-05T17:56:11.382Z,8.00
2019-01-05T17:59:07.810Z,8.00
2019-01-05T18:01:59.689Z,8.00
2019-01-05T18:04:48.316Z,8.00
2019-01-05T18:07:46.210Z,7.90
2019-01-05T18:10:43.453Z,7.90
2019-01-05T18:13:38.952Z,7.90
2019-01-05T18:16:29.175Z,7.80
2019-01-05T18:19:17.685Z,7.80
2019-01-05T18:22:06.152Z,7.80
2019-01-05T18:24:55.172Z,7.80
2019-01-05T18:27:48.006Z,7.70
2019-01-05T18:30:36.574Z,7.70
2019-01-05T18:33:32.044Z,7.70
2019-01-05T18:36:20.464Z,7.60
2019-01-05T18:39:06.623Z,7.60
2019-01-05T18:42:09.192Z,7.60
2019-01-05T18:44:57.079Z,7.60
2019-01-05T18:48:00.703Z,7.60
2019-01-05T18:50:47.680Z,7.50
2019-01-05T18:53:50.711Z,7.50
2019-01-05T18:56:41.571Z,7.50
2019-01-05T18:59:44.948Z,7.40
2019-01-05T19:02:36.136Z,7.40
2019-01-05T19:05:23.235Z,7.40
2019-01-05T19:08:14.569Z,7.40
2019-01-05T19:11:07.058Z,7.30
2019-01-05T19:13:51.069Z,7.30
2019-01-05T19:16:37.880Z,7.30
2019-01-05T19:19:29.204Z,7.30
2019-01-05T19:22:16.568Z,7.30
2019-01-05T19:25:09.961Z,7.20
2019-01-05T19:28:14.186Z,7.20
2019-01-05T19:30:58.771Z,7.20
2019-01-05T19:33:47.171Z,7.20
2019-01-05T19:36:34.420Z,7.10
2019-01-05T19:39:29.930Z,7.10
2019-01-05T19:42:16.777Z,7.10
2019-01-05T19:45:05.681Z,7.10
2019-01-05T19:48:02.876Z,7.10
2019-01-05T19:50:50.104Z,7.00
2019-01-05T19:53:51.607Z,7.00
2019-01-05T19:56:42.753Z,7.00
2019-01-05T19:59:32.139Z,7.00
2019-01-05T20:02:20.867Z,6.90
2019-01-05T20:05:11.117Z,6.90
2019-01-05T20:07:59.609Z,6.90
2019-01-05T20:10:46.701Z,6.80
2019-01-05T20:13:37.955Z,6.90
2019-01-05T20:16:29.023Z,6.80
2019-01-05T20:19:16.077Z,6.80
2019-01-05T20:22:04.285Z,6.80
2019-01-05T20:25:07.495Z,6.80
2019-01-05T20:27:55.557Z,6.70
2019-01-05T20:30:42.812Z,6.70
2019-01-05T20:33:47.658Z,6.70
2019-01-05T20:36:36.043Z,6.70
2019-01-05T20:39:30.520Z,6.70
2019-01-05T20:42:23.078Z,6.60
2019-01-05T20:45:04.486Z,6.60
2019-01-05T20:47:53.833Z,6.60
2019-01-05T20:50:40.729Z,6.60
2019-01-05T20:53:29.055Z,6.60
2019-01-05T20:56:16.508Z,6.60
2019-01-05T20:59:03.705Z,6.60
2019-01-05T21:01:48.000Z,6.60
2019-01-05T21:04:51.761Z,6.50
2019-01-05T21:07:38.668Z,6.50
2019-01-05T21:10:27.986Z,6.50
2019-01-05T21:13:32.881Z,6.50
2019-01-05T21:16:25.353Z,6.50
2019-01-05T21:19:19.936Z,6.50
2019-01-05T21:22:07.286Z,6.50
2019-01-05T21:24:58.869Z,6.50
2019-01-05T21:27:46.319Z,6.40
2019-01-05T21:30:40.984Z,6.40
2019-01-05T21:33:28.425Z,6.40
2019-01-05T21:36:19.788Z,6.40
2019-01-05T21:39:06.712Z,6.40
2019-01-05T21:41:59.529Z,6.40
2019-01-05T21:45:03.160Z,6.40
2019-01-05T21:47:51.563Z,6.40
2019-01-05T21:50:38.757Z,6.30
2019-01-05T21:53:24.367Z,6.30
2019-01-05T21:56:11.404Z,6.30
2019-01-05T21:59:14.924Z,6.30
2019-01-05T22:02:02.265Z,6.30
2019-01-05T22:04:56.452Z,6.30
2019-01-05T22:08:00.068Z,6.20
2019-01-05T22:10:59.964Z,6.30
2019-01-05T22:13:51.236Z,6.20
2019-01-05T22:16:40.640Z,6.20
2019-01-05T22:19:23.208Z,6.20
2019-01-05T22:22:22.213Z,6.20
2019-01-05T22:25:09.381Z,6.20
2019-01-05T22:27:56.476Z,6.20
2019-01-05T22:30:44.940Z,6.20
2019-01-05T22:33:33.381Z,6.20
2019-01-05T22:36:35.265Z,6.20
2019-01-05T22:39:25.132Z,6.20
2019-01-05T22:42:22.441Z,6.20
2019-01-05T22:45:19.737Z,6.20
2019-01-05T22:48:07.404Z,6.10
2019-01-05T22:50:59.826Z,6.20
2019-01-05T22:53:47.011Z,6.10
2019-01-05T22:56:34.089Z,6.20
2019-01-05T22:59:21.022Z,6.10
2019-01-05T23:02:15.191Z,6.10
2019-01-05T23:05:03.521Z,6.10
2019-01-05T23:07:57.531Z,6.10
2019-01-05T23:10:44.560Z,6.10
2019-01-05T23:13:31.356Z,6.10
2019-01-05T23:16:18.191Z,6.10
2019-01-05T23:19:05.166Z,6.10
2019-01-05T23:21:52.255Z,6.10
2019-01-05T23:24:43.672Z,6.10
2019-01-05T23:27:32.941Z,6.10
2019-01-05T23:30:30.153Z,6.10
2019-01-05T23:33:24.291Z,6.10
2019-01-05T23:36:12.629Z,6.10
2019-01-05T23:39:03.840Z,6.10
2019-01-05T23:41:46.084Z,6.10
2019-01-05T23:44:36.112Z,6.10
2019-01-05T23:47:19.398Z,6.10
2019-01-05T23:50:06.679Z,6.10
2019-01-05T23:53:13.291Z,6.10
2019-01-05T23:56:00.476Z,6.10
2019-01-05T23:59:01.070Z,6.10
